Terminal Aerodrome Forecast
Issued by NWS Jackson, KY

Home | Current Version | Previous Version | Text Only | Print | Product List | Glossary On
Versions: 1 2 3 4 5 6 7 8 9 10 11 12 13 14 15 16 17 18 19 20
000
FTUS43 KJKL 021120
TAFJKL
TAF
KJKL 021120Z 0212/0312 24004KT P6SM FEW200
     FM021600 26007KT P6SM SCT035 SCT150
     FM022300 30003KT P6SM SCT030=

USA.gov is the U.S. government's official web portal to all federal, state and local government web resources and services.